Aérodrome :
LOGIN :

S'inscrire | Disclaimer

   EN    FR    IT 

 










Légende :    VFR   VFR Marginal   IFR   IFR Intensif   IFR Très Intensif
Visi : 
Plafond : 
>= 8 km
>= 3000ft
5 à 8 km
1000 à 3000 ft
1500m à 5 km
500 à 1000 ft
800 à 1500m
200 à 500 ft
< 800m
< 200 ft
Symboles :   Orages  Brouillard  Fortes neiges  Fortes précipitations  Vent > 20 kt
SIGMETs :   Divers  Orages  Givrage  Turbulence  Onde Orograph.  Cendres Volcan.






- Altitude de l'aérodrome : 1363 ft


ETIC - Grafenwohr Army Air Field

DERNIER METAR :
  • 210256Z AUTO 00000KT 9999 CLR M06/M07 A3074 RMK AO2 SLP439 T10651066 57016 $

METARs EXPIRÉS :
  • 210156Z AUTO 00000KT 9999 CLR M06/M06 A3076 RMK AO2 SLP444 T10621063 $
  • 210056Z AUTO 31003KT 9999 CLR M06/M06 A3078 RMK AO2 SLP453 T10561056 $

TAF TAF ETIC
Valide du 21 à 02h jusqu'au 22 à 08h UTC


210200Z 2102/2208 VRB06KT 9999 SKC QNH3060INS
BECMG 2201/2202 VRB06KT 5000 BR SKC QNH3054INS TX02/2112Z TNM07/2106Z



MET'MAP, la Météo Aéronautique d'un coup d'oeil ! - Copyright ORBIFLY Décembre 2007 - Disclaimer

ORBIFLY MET'MAP TEAM :

Programmation & Développement : Alexandra Zaïnal
Sur une idée originale de : Baudouin d'Aumeries
Assistance à la programmation : Marc-Olivier Méhu
Soutien technique & logistique : Manuel Goepfert

Contact : metmap@orbifly.com




SOURCES & CREDITS :

   NOAA